Aérodrome :







RETROUVEZ-NOUS SUR...

 
LOGIN :

S'inscrire | Disclaimer

   EN    FR    IT 

 









Légende :    VFR   VFR Marginal   IFR   IFR Intensif   IFR Très Intensif
Visi : 
Plafond : 
>= 8 km
>= 3000ft
5 à 8 km
1000 à 3000 ft
1500m à 5 km
500 à 1000 ft
800 à 1500m
200 à 500 ft
< 800m
< 200 ft
Symboles :   Orages  Brouillard  Fortes neiges  Fortes précipitations  Vent > 20 kt






- Altitude de l'aérodrome : 461 ft
- Code IATA : YYT


CYYT - St John's Int

DERNIER METAR :
  • 270200Z 03007KT 12SM -SN OVC006 M03/M03 A3005 RMK SF8 SLP184

METARs EXPIRÉS :
  • 270145Z 04009KT 10SM -SN OVC007 M03/M03 A3004 RMK SF8 SLP183
  • 270100Z 04009KT 5SM BR OVC005 M03/M03 A3004 RMK SF8 SLP181
  • 270030Z 04009KT 3SM BR OVC003 M02/M03 A3002 RMK SF8 SLP176
  • 270000Z 05010KT 2 1/2SM BR OVC002 M02/M03 A3002 RMK ST8 SLP173
  • 262346Z 05010KT 1 1/2SM BR OVC002 M02/M02 A3001 RMK FG4SF4 SLP171

TAF TAF CYYT
Valide du 27 à 00h jusqu'au 28 à 00h UTC


262341Z 2700/2724 04010KT 1/2SM FZFG VV002
TEMPO 2700/2702 2SM -SN BR OVC004
PROB30 2700/2702 2SM -FZDZ BR
FM270200 01012KT 2SM -SN BR BKN005 OVC010
TEMPO 2702/2706 6SM -SN SCT005 OVC010
PROB30 2702/2706 2SM -SN -FZDZ BR
FM270600 01012KT 6SM -SN SCT006 OVC012
PROB30 2706/2715 2SM -FZDZ BR BKN006
FM271500 34015KT P6SM BKN015
BECMG 2720/2722 05015KT RMK NXT FCST BY 270600Z



MET'MAP, la Météo Aéronautique d'un coup d'oeil ! - Copyright ORBIFLY Décembre 2007 - Disclaimer

ORBIFLY MET'MAP TEAM :

Programmation & Développement : Alexandra Zaïnal
Sur une idée originale de : Baudouin d'Aumeries
Assistance à la programmation : Marc-Olivier Méhu
Soutien technique & logistique : Manuel Goepfert

Contact : metmap@orbifly.com




SOURCES & CREDITS :

   NOAA